Time;durP1;ratioP1;P1;durP2;ratioP2;P2;SDS_P1;SDS_P2;PMS_P1;PMS_P2;Temp;Humidity;BMP_temperature;BMP_pressure;BME280_temperature;BME280_humidity;BME280_pressure;Samples;Min_cycle;Max_cycle;Signal;HPM_P1;HPM_P2
2022/12/08 00:00:46;;;;;;;28.77;12.00;;;;;;;3.93;100.00;99866.84;5012777;28;20104;-68
2022/12/08 00:03:11;;;;;;;26.38;13.13;;;;;;;3.91;100.00;99865.09;5014349;28;20049;-68
2022/12/08 00:11:04;;;;;;;22.65;11.30;;;;;;;3.92;100.00;99844.03;5030417;28;20095;-68
2022/12/08 00:13:30;;;;;;;28.15;12.55;;;;;;;3.94;100.00;99847.53;5030426;28;20457;-68
2022/12/08 00:16:00;;;;;;;20.83;11.70;;;;;;;3.97;100.00;99846.63;5019889;28;20109;-68
2022/12/08 00:18:25;;;;;;;19.95;9.55;;;;;;;3.99;100.00;99842.22;5014847;28;20112;-68
2022/12/08 00:20:55;;;;;;;19.77;9.77;;;;;;;3.99;100.00;99840.47;5014725;28;20128;-68
2022/12/08 00:23:21;;;;;;;21.95;10.43;;;;;;;4.00;100.00;99841.38;5014487;28;20429;-68
2022/12/08 00:25:46;;;;;;;25.23;10.43;;;;;;;3.99;100.00;99836.97;5024504;28;20108;-68
2022/12/08 00:28:11;;;;;;;19.88;10.32;;;;;;;3.95;100.00;99830.00;5034246;28;20112;-68
2022/12/08 00:30:39;;;;;;;25.45;10.20;;;;;;;3.87;100.00;99813.41;5023717;28;20025;-69
2022/12/08 00:33:05;;;;;;;20.00;9.85;;;;;;;3.90;100.00;99826.53;5016605;28;20030;-69
2022/12/08 00:35:30;;;;;;;18.15;10.10;;;;;;;3.84;100.00;99829.22;5018392;28;20025;-68
2022/12/08 00:37:55;;;;;;;22.17;10.07;;;;;;;3.75;100.00;99824.03;5016407;28;20112;-68
2022/12/08 00:40:21;;;;;;;19.80;10.23;;;;;;;3.73;100.00;99817.91;5013604;28;20377;-68
2022/12/08 00:42:46;;;;;;;18.13;9.05;;;;;;;3.65;100.00;99820.63;5014966;28;20034;-68
2022/12/08 00:45:11;;;;;;;16.27;8.80;;;;;;;3.58;100.00;99818.03;5032662;28;20064;-68
2022/12/08 00:47:37;;;;;;;17.17;9.90;;;;;;;3.52;100.00;99810.22;5032743;28;20022;-68
2022/12/08 00:50:03;;;;;;;15.85;8.73;;;;;;;3.50;100.00;99811.97;5032679;28;20585;-68
2022/12/08 00:52:28;;;;;;;15.38;9.10;;;;;;;3.43;100.00;99815.50;5028236;28;20057;-68
2022/12/08 00:54:54;;;;;;;16.45;8.98;;;;;;;3.34;100.00;99810.34;5022176;28;20687;-68
2022/12/08 00:57:19;;;;;;;16.95;7.75;;;;;;;3.30;100.00;99809.50;5033246;28;20029;-68
2022/12/08 00:59:44;;;;;;;18.08;8.50;;;;;;;3.27;100.00;99806.00;5022077;28;20141;-68
2022/12/08 01:02:10;;;;;;;18.92;9.50;;;;;;;3.22;100.00;99810.41;5013746;28;20036;-68
2022/12/08 01:04:35;;;;;;;19.25;7.93;;;;;;;3.10;100.00;99792.13;5026706;28;20085;-68
2022/12/08 01:07:01;;;;;;;21.63;10.20;;;;;;;3.19;100.00;99802.56;5013528;28;20114;-68
2022/12/08 01:09:26;;;;;;;20.15;9.95;;;;;;;3.18;100.00;99804.31;5027845;28;20025;-68
2022/12/08 01:11:51;;;;;;;20.25;8.77;;;;;;;3.15;100.00;99801.69;5023318;28;20424;-68
2022/12/08 01:14:17;;;;;;;18.45;9.90;;;;;;;3.11;100.00;99799.09;5013487;28;20084;-68
2022/12/08 01:16:42;;;;;;;24.17;9.65;;;;;;;3.05;100.00;99809.66;5013511;28;20047;-68
2022/12/08 01:19:12;;;;;;;20.00;9.07;;;;;;;3.00;100.00;99804.41;5025274;28;20060;-68
2022/12/08 01:21:39;;;;;;;23.00;9.23;;;;;;;2.94;100.00;99803.59;5033101;28;20029;-68
2022/12/08 01:24:05;;;;;;;24.30;11.18;;;;;;;2.99;100.00;99812.31;5026936;28;20032;-68
2022/12/08 01:26:30;;;;;;;19.40;9.15;;;;;;;2.98;100.00;99808.84;5013368;28;20458;-68
2022/12/08 01:28:56;;;;;;;18.23;10.45;;;;;;;2.91;100.00;99808.84;5012774;28;20033;-68
2022/12/08 01:31:21;;;;;;;18.17;9.50;;;;;;;2.85;100.00;99809.75;5014859;28;20041;-68
2022/12/08 01:33:48;;;;;;;22.95;10.90;;;;;;;2.78;100.00;99807.19;5027289;28;20039;-68
2022/12/08 01:36:25;;;;;;;19.73;9.60;;;;;;;2.70;100.00;99809.84;5029909;28;20441;-68
2022/12/08 01:38:51;;;;;;;18.70;8.98;;;;;;;2.62;100.00;99809.88;5014789;28;20761;-68
2022/12/08 01:41:20;;;;;;;18.45;10.15;;;;;;;2.54;100.00;99814.28;5012934;28;20721;-68
2022/12/08 01:44:07;;;;;;;19.45;10.25;;;;;;;2.47;100.00;99807.31;5014968;28;20056;-67
2022/12/08 01:46:33;;;;;;;20.05;9.50;;;;;;;2.45;100.00;99806.47;4992189;28;20040;-68
2022/12/08 01:49:19;;;;;;;17.63;8.82;;;;;;;2.44;100.00;99807.31;5019778;28;20033;-68
2022/12/08 01:51:56;;;;;;;25.70;10.27;;;;;;;2.45;100.00;99809.09;5032618;28;20061;-68
2022/12/08 01:54:25;;;;;;;22.45;9.93;;;;;;;2.46;100.00;99802.06;5018176;28;20033;-68
2022/12/08 01:57:00;;;;;;;21.33;10.35;;;;;;;2.46;100.00;99795.06;5012474;28;20026;-68
2022/12/08 01:59:27;;;;;;;19.80;9.68;;;;;;;2.33;100.00;99780.25;5019544;28;20120;-67
2022/12/08 02:01:53;;;;;;;20.95;10.63;;;;;;;2.42;100.00;99790.69;5026786;28;20025;-67
2022/12/08 02:04:18;;;;;;;21.67;11.00;;;;;;;2.30;100.00;99782.00;5018057;28;20038;-68
2022/12/08 02:06:45;;;;;;;22.52;9.63;;;;;;;2.25;100.00;99781.16;5012165;28;20074;-68
2022/12/08 02:09:12;;;;;;;22.55;11.90;;;;;;;2.25;100.00;99779.41;5015004;28;20049;-68
2022/12/08 02:11:37;;;;;;;20.50;10.82;;;;;;;2.29;100.00;99778.50;5012438;28;20119;-69
2022/12/08 02:14:07;;;;;;;22.10;9.65;;;;;;;2.33;100.00;99772.38;5016865;28;20034;-68
2022/12/08 02:16:59;;;;;;;25.27;11.82;;;;;;;2.36;100.00;99766.22;5012112;28;20045;-69
2022/12/08 02:19:58;;;;;;;24.30;10.95;;;;;;;2.33;100.00;99780.25;5011847;28;20062;-69
2022/12/08 02:22:45;;;;;;;20.90;10.80;;;;;;;2.26;100.00;99773.28;5011995;28;20529;-69
2022/12/08 02:25:24;;;;;;;20.17;10.43;;;;;;;2.09;100.00;99767.19;5018752;28;20485;-68
2022/12/08 02:28:01;;;;;;;22.23;11.43;;;;;;;1.95;100.00;99763.75;5031899;28;20075;-68
2022/12/08 02:31:04;;;;;;;22.08;10.10;;;;;;;1.86;100.00;99761.13;5026326;28;20034;-68
2022/12/08 02:33:57;;;;;;;23.70;9.98;;;;;;;1.76;100.00;99762.06;5011969;28;20030;-68
2022/12/08 02:36:34;;;;;;;15.90;9.20;;;;;;;1.69;100.00;99762.94;5013924;28;20037;-68
2022/12/08 02:39:35;;;;;;;18.95;9.60;;;;;;;1.69;100.00;99765.53;5011963;28;20042;-68
2022/12/08 02:42:19;;;;;;;21.95;10.38;;;;;;;1.66;100.00;99762.94;5011532;28;20029;-68
2022/12/08 02:44:47;;;;;;;19.25;10.32;;;;;;;1.59;100.00;99758.56;5031318;28;20029;-68
2022/12/08 02:47:17;;;;;;;20.30;9.75;;;;;;;1.54;100.00;99760.31;5030795;28;20029;-68
2022/12/08 02:49:42;;;;;;;21.10;9.55;;;;;;;1.50;100.00;99753.31;5026485;28;20044;-68
2022/12/08 02:52:10;;;;;;;19.92;10.75;;;;;;;1.43;100.00;99748.97;5030748;28;20026;-68
2022/12/08 02:54:37;;;;;;;23.88;11.77;;;;;;;1.37;100.00;99745.50;5030607;28;20026;-68
2022/12/08 02:57:18;;;;;;;20.90;12.57;;;;;;;1.43;100.00;99743.75;5030249;28;20037;-68
2022/12/08 02:59:52;;;;;;;25.20;13.10;;;;;;;1.44;100.00;99740.22;5013757;28;20025;-68
2022/12/08 03:02:29;;;;;;;23.83;13.68;;;;;;;1.50;100.00;99740.22;5011586;28;20037;-68
2022/12/08 03:04:57;;;;;;;28.60;13.38;;;;;;;1.54;100.00;99739.34;5016769;28;20041;-68
2022/12/08 03:08:05;;;;;;;25.90;12.02;;;;;;;1.55;100.00;99730.59;5011145;28;20050;-68
2022/12/08 03:10:41;;;;;;;23.42;11.55;;;;;;;1.59;100.00;99727.13;5021224;28;20057;-68
2022/12/08 03:13:17;;;;;;;29.58;11.75;;;;;;;1.57;100.00;99707.91;5027032;28;20076;-68
2022/12/08 03:15:47;;;;;;;30.52;10.65;;;;;;;1.63;100.00;99723.59;5011198;28;20037;-68
2022/12/08 03:18:14;;;;;;;20.85;9.95;;;;;;;1.76;100.00;99712.25;5011470;28;20026;-68
2022/12/08 03:20:41;;;;;;;18.73;10.23;;;;;;;1.93;100.00;99713.03;5030176;28;20535;-68
2022/12/08 03:23:11;;;;;;;25.08;13.38;;;;;;;2.05;100.00;99718.25;5030931;28;20021;-68
2022/12/08 03:25:43;;;;;;;25.30;12.02;;;;;;;2.20;100.00;99717.31;5021289;28;20029;-68
2022/12/08 03:28:08;;;;;;;21.65;11.60;;;;;;;2.29;100.00;99710.28;5029078;28;20109;-68
2022/12/08 03:30:39;;;;;;;23.80;11.75;;;;;;;2.36;100.00;99704.13;5028932;28;20509;-69
2022/12/08 03:33:29;;;;;;;23.45;11.00;;;;;;;2.44;100.00;99707.59;5012472;28;20485;-69
2022/12/08 03:35:55;;;;;;;20.70;10.98;;;;;;;2.49;100.00;99695.31;5030732;28;20424;-69
2022/12/08 03:38:21;;;;;;;45.00;29.25;;;;;;;2.54;100.00;99698.78;5012151;28;20121;-68
2022/12/08 03:41:17;;;;;;;36.53;24.67;;;;;;;2.59;100.00;99699.63;5028640;28;20117;-68
2022/12/08 03:43:32;;;;;;;40.25;22.92;;;;;;;2.58;100.00;99692.66;5030764;28;20039;-69
2022/12/08 03:45:57;;;;;;;89.63;52.90;;;;;;;2.55;100.00;99687.38;5017552;28;20026;-69
2022/12/08 03:48:23;;;;;;;80.28;43.50;;;;;;;2.59;100.00;99690.88;5009837;28;20041;-68
2022/12/08 03:50:48;;;;;;;84.10;59.70;;;;;;;2.57;100.00;99690.88;5022925;28;20372;-69
2022/12/08 03:53:13;;;;;;;47.92;33.35;;;;;;;2.63;100.00;99687.34;5013739;28;20071;-68
2022/12/08 03:55:39;;;;;;;24.90;11.18;;;;;;;2.61;100.00;99679.50;5027215;28;20048;-69
2022/12/08 03:58:04;;;;;;;27.27;11.90;;;;;;;2.63;100.00;99680.38;5034750;28;20025;-69
2022/12/08 04:00:30;;;;;;;29.48;17.65;;;;;;;2.64;100.00;99684.72;5025305;28;20436;-69
2022/12/08 04:02:55;;;;;;;59.40;30.95;;;;;;;2.66;100.00;99677.72;5016355;28;20045;-68
2022/12/08 04:05:20;;;;;;;30.40;15.75;;;;;;;2.69;100.00;99682.06;5032530;28;20032;-69
2022/12/08 04:07:46;;;;;;;31.02;16.00;;;;;;;2.69;100.00;99680.31;5026249;28;20099;-68
2022/12/08 04:10:11;;;;;;;34.20;20.45;;;;;;;2.77;100.00;99668.91;5034272;28;20026;-68
2022/12/08 04:12:37;;;;;;;33.05;17.73;;;;;;;2.81;100.00;99665.34;5026608;28;20033;-69
2022/12/08 04:15:02;;;;;;;36.40;17.85;;;;;;;2.82;100.00;99667.13;5014705;28;20030;-69
2022/12/08 04:17:28;;;;;;;25.55;14.15;;;;;;;2.84;100.00;99657.44;5017697;28;20088;-69
2022/12/08 04:19:53;;;;;;;28.27;13.07;;;;;;;2.87;100.00;99660.06;5032330;28;20040;-69
2022/12/08 04:22:18;;;;;;;26.92;12.90;;;;;;;2.88;100.00;99657.44;5034105;28;20366;-69
2022/12/08 04:24:44;;;;;;;22.15;10.68;;;;;;;2.90;100.00;99654.78;5034115;28;20075;-68
2022/12/08 04:27:09;;;;;;;24.52;9.80;;;;;;;2.88;100.00;99659.19;5029198;28;20036;-68
2022/12/08 04:29:34;;;;;;;20.17;9.90;;;;;;;2.95;100.00;99653.84;5015777;28;20623;-68
2022/12/08 04:32:00;;;;;;;18.77;9.63;;;;;;;3.02;100.00;99665.19;5013149;28;20414;-69
2022/12/08 04:34:25;;;;;;;19.70;10.70;;;;;;;3.06;100.00;99659.03;5015678;28;20037;-68
2022/12/08 04:36:51;;;;;;;21.15;11.38;;;;;;;3.08;100.00;99654.63;5013067;28;20022;-69
2022/12/08 04:39:16;;;;;;;18.70;9.88;;;;;;;3.12;100.00;99645.81;5015244;28;20040;-69
2022/12/08 04:41:41;;;;;;;24.90;10.63;;;;;;;3.12;100.00;99653.72;5013417;28;20381;-68
2022/12/08 04:44:07;;;;;;;19.77;9.63;;;;;;;3.12;100.00;99640.56;5013606;28;20164;-68
2022/12/08 04:46:32;;;;;;;23.08;9.88;;;;;;;3.12;100.00;99646.72;5016535;28;20044;-69
2022/12/08 04:48:58;;;;;;;17.98;9.73;;;;;;;3.18;100.00;99643.16;5014058;28;20029;-69
2022/12/08 04:51:23;;;;;;;20.42;10.48;;;;;;;3.09;100.00;99641.47;5024899;28;20084;-68
2022/12/08 04:53:48;;;;;;;17.08;9.32;;;;;;;3.19;100.00;99644.91;5013914;28;20499;-69
2022/12/08 04:56:16;;;;;;;20.80;10.70;;;;;;;3.20;100.00;99650.13;5013723;28;20028;-68
2022/12/08 04:58:41;;;;;;;15.57;9.05;;;;;;;3.16;100.00;99645.81;5015739;28;20033;-68
2022/12/08 05:01:07;;;;;;;18.67;10.00;;;;;;;3.19;100.00;99642.25;5013563;28;20026;-68
2022/12/08 05:03:32;;;;;;;19.08;9.30;;;;;;;3.09;100.00;99637.97;5021827;28;20033;-68
2022/12/08 05:05:59;;;;;;;23.00;10.20;;;;;;;3.17;100.00;99636.16;5032163;28;20072;-68
2022/12/08 05:08:24;;;;;;;20.67;9.45;;;;;;;3.25;100.00;99642.19;5013508;28;20469;-69
2022/12/08 05:10:50;;;;;;;18.55;9.27;;;;;;;3.23;100.00;99633.50;5013624;28;20087;-69
2022/12/08 05:13:15;;;;;;;20.20;10.32;;;;;;;3.24;100.00;99640.47;5015663;28;20036;-68
2022/12/08 05:15:41;;;;;;;23.10;8.93;;;;;;;3.22;100.00;99647.50;5013153;28;20101;-68
2022/12/08 05:18:06;;;;;;;19.63;8.63;;;;;;;3.23;100.00;99639.59;5012751;28;20136;-68
2022/12/08 05:20:32;;;;;;;25.83;9.13;;;;;;;3.26;100.00;99633.44;5012772;28;20028;-68
2022/12/08 05:22:57;;;;;;;20.83;10.07;;;;;;;3.28;100.00;99636.94;5014953;28;20359;-68
2022/12/08 05:25:23;;;;;;;19.10;9.45;;;;;;;3.28;100.00;99642.19;5014946;28;20045;-69
2022/12/08 05:27:49;;;;;;;23.45;8.88;;;;;;;3.28;100.00;99632.53;5028452;28;20099;-69
2022/12/08 05:30:14;;;;;;;20.60;10.90;;;;;;;3.31;100.00;99631.66;5032667;28;20674;-69
2022/12/08 05:32:40;;;;;;;20.15;9.73;;;;;;;3.07;100.00;99605.59;5028911;28;20567;-68
2022/12/08 05:35:06;;;;;;;23.38;11.80;;;;;;;3.23;100.00;99631.69;5031263;28;20445;-69
2022/12/08 05:37:31;;;;;;;23.88;11.52;;;;;;;3.24;100.00;99628.22;5019140;28;20018;-69
2022/12/08 05:39:56;;;;;;;23.65;11.05;;;;;;;3.22;100.00;99624.72;5015411;28;20402;-69
2022/12/08 05:42:22;;;;;;;21.30;10.63;;;;;;;3.22;100.00;99626.47;5012962;28;20557;-68
2022/12/08 05:44:47;;;;;;;29.65;11.23;;;;;;;3.11;100.00;99613.44;5015321;28;20124;-69
2022/12/08 05:47:13;;;;;;;22.15;10.35;;;;;;;3.12;100.00;99622.19;5012791;28;20185;-68
2022/12/08 05:49:38;;;;;;;23.63;10.77;;;;;;;3.09;100.00;99619.59;5012921;28;20552;-69
2022/12/08 05:52:03;;;;;;;24.15;10.70;;;;;;;3.07;100.00;99626.59;5024513;28;20108;-69
2022/12/08 05:54:29;;;;;;;18.88;10.02;;;;;;;2.95;100.00;99605.72;5032639;28;20059;-68
2022/12/08 05:56:54;;;;;;;26.35;9.55;;;;;;;2.98;100.00;99626.69;5027738;28;20112;-68
2022/12/08 05:59:20;;;;;;;17.90;8.27;;;;;;;2.90;100.00;99621.50;5012825;28;20022;-68
2022/12/08 06:01:45;;;;;;;20.05;9.13;;;;;;;2.79;100.00;99619.84;5018702;28;20078;-68
2022/12/08 06:04:11;;;;;;;20.35;9.27;;;;;;;2.76;100.00;99630.38;5024705;28;20029;-68
2022/12/08 06:06:37;;;;;;;17.90;8.93;;;;;;;2.68;100.00;99633.91;5020659;28;20668;-68
2022/12/08 06:09:04;;;;;;;15.00;8.57;;;;;;;2.62;100.00;99626.09;5032524;28;20033;-68
2022/12/08 06:11:30;;;;;;;17.15;8.75;;;;;;;2.57;100.00;99624.41;5032273;28;20029;-68
2022/12/08 06:13:57;;;;;;;16.25;7.93;;;;;;;2.48;100.00;99625.34;5029668;28;20100;-68
2022/12/08 06:16:24;;;;;;;13.45;7.25;;;;;;;2.45;100.00;99624.47;5015427;28;20037;-68
2022/12/08 06:18:50;;;;;;;20.35;8.32;;;;;;;2.45;100.00;99624.47;5032222;28;20025;-68
2022/12/08 06:21:17;;;;;;;18.10;8.98;;;;;;;2.42;100.00;99630.59;5030811;28;20091;-68
2022/12/08 06:23:42;;;;;;;18.92;8.48;;;;;;;2.41;100.00;99634.13;5014309;28;20064;-67
2022/12/08 06:26:11;;;;;;;18.45;8.85;;;;;;;2.36;100.00;99624.53;5012208;28;20057;-68
2022/12/08 06:28:37;;;;;;;24.38;9.57;;;;;;;2.41;100.00;99620.13;5014486;28;20037;-68
2022/12/08 06:31:13;;;;;;;20.92;10.35;;;;;;;2.54;100.00;99630.53;5013915;28;20029;-68
2022/12/08 06:33:39;;;;;;;18.55;9.73;;;;;;;2.53;100.00;99613.06;5031758;28;20029;-68
2022/12/08 06:36:05;;;;;;;20.50;9.77;;;;;;;2.60;100.00;99617.34;5029325;28;20095;-68
2022/12/08 06:38:31;;;;;;;20.08;9.20;;;;;;;2.75;100.00;99637.41;5031809;28;20033;-68
2022/12/08 06:40:58;;;;;;;23.58;10.15;;;;;;;2.78;100.00;99633.88;5031868;28;20055;-68
2022/12/08 06:43:24;;;;;;;22.98;10.57;;;;;;;2.79;100.00;99630.34;5029173;28;20090;-68
2022/12/08 06:45:49;;;;;;;22.20;10.10;;;;;;;2.88;100.00;99635.53;5030783;28;20053;-68
2022/12/08 06:48:15;;;;;;;18.05;10.35;;;;;;;2.90;100.00;99633.78;5030175;28;20021;-68
2022/12/08 06:50:41;;;;;;;20.98;10.80;;;;;;;2.93;100.00;99631.13;5014000;28;20026;-68
2022/12/08 06:53:06;;;;;;;23.33;10.48;;;;;;;2.98;100.00;99631.94;5011856;28;20437;-68
2022/12/08 06:55:32;;;;;;;19.58;10.85;;;;;;;2.99;100.00;99634.56;5030949;28;20025;-68
2022/12/08 06:57:57;;;;;;;22.00;10.48;;;;;;;3.00;100.00;99624.94;5027297;28;20376;-68
2022/12/08 07:00:23;;;;;;;18.13;11.30;;;;;;;3.04;100.00;99637.16;5031177;28;20072;-68
2022/12/08 07:02:48;;;;;;;20.58;9.77;;;;;;;3.10;100.00;99637.13;5031102;28;20028;-68
2022/12/08 07:05:14;;;;;;;26.27;10.20;;;;;;;3.11;100.00;99644.09;5028880;28;20029;-68
2022/12/08 07:07:39;;;;;;;20.52;10.60;;;;;;;3.13;100.00;99644.97;5031342;28;20099;-68
2022/12/08 07:10:06;;;;;;;20.42;9.77;;;;;;;3.12;100.00;99635.31;5025749;28;20041;-68
2022/12/08 07:12:31;;;;;;;21.25;11.40;;;;;;;3.14;100.00;99638.81;5011626;28;20030;-68
2022/12/08 07:14:57;;;;;;;23.02;10.93;;;;;;;3.12;100.00;99636.19;5011824;28;20033;-68
2022/12/08 07:17:22;;;;;;;19.23;9.30;;;;;;;3.13;100.00;99631.81;5013911;28;20481;-68
2022/12/08 07:19:47;;;;;;;19.67;10.35;;;;;;;3.12;100.00;99627.44;5009413;28;20033;-68
2022/12/08 07:22:13;;;;;;;26.63;11.85;;;;;;;3.19;100.00;99637.00;5009320;28;20368;-68
2022/12/08 07:24:38;;;;;;;22.45;10.98;;;;;;;3.07;100.00;99627.47;5010572;28;20477;-68
2022/12/08 07:27:04;;;;;;;21.05;10.77;;;;;;;3.16;100.00;99644.94;5029001;28;20037;-68
2022/12/08 07:29:29;;;;;;;25.13;11.23;;;;;;;3.22;100.00;99647.50;5017817;28;20386;-68
2022/12/08 07:31:54;;;;;;;27.33;13.23;;;;;;;3.28;100.00;99648.31;5015247;28;20104;-68
2022/12/08 07:34:20;;;;;;;27.33;12.55;;;;;;;3.30;100.00;99657.06;5017617;28;20029;-68
2022/12/08 07:36:45;;;;;;;26.50;12.90;;;;;;;3.32;100.00;99654.41;5015480;28;20040;-68
2022/12/08 07:39:10;;;;;;;22.60;10.70;;;;;;;3.33;100.00;99645.63;5015558;28;20018;-68
2022/12/08 07:41:36;;;;;;;28.05;14.73;;;;;;;3.32;100.00;99646.53;5017493;28;20447;-68
2022/12/08 07:44:03;;;;;;;28.85;15.23;;;;;;;3.31;100.00;99637.75;5014998;28;20034;-68
2022/12/08 07:46:28;;;;;;;25.98;13.93;;;;;;;3.38;100.00;99638.56;5014927;28;20041;-68
2022/12/08 07:48:55;;;;;;;25.20;14.20;;;;;;;3.33;100.00;99627.22;5017095;28;20030;-68
2022/12/08 07:51:22;;;;;;;27.15;12.90;;;;;;;3.46;100.00;99634.97;5034680;28;20025;-68
2022/12/08 07:53:49;;;;;;;26.80;13.38;;;;;;;3.50;100.00;99630.56;5034914;28;20018;-68
2022/12/08 07:56:14;;;;;;;26.17;13.68;;;;;;;3.54;100.00;99634.91;5019515;28;20038;-68
2022/12/08 07:58:40;;;;;;;32.45;15.18;;;;;;;3.51;100.00;99635.81;5014807;28;20370;-68
2022/12/08 08:01:19;;;;;;;23.42;12.98;;;;;;;3.53;100.00;99635.78;5016984;28;20029;-68
2022/12/08 08:03:45;;;;;;;28.90;14.05;;;;;;;3.62;100.00;99627.81;5021899;28;20039;-68
2022/12/08 08:06:10;;;;;;;24.75;14.90;;;;;;;3.72;100.00;99624.19;5018106;28;20042;-68
2022/12/08 08:08:35;;;;;;;30.83;14.15;;;;;;;3.83;100.00;99627.56;5015927;28;20029;-68
2022/12/08 08:11:05;;;;;;;25.27;14.48;;;;;;;3.94;100.00;99631.81;5014691;28;20022;-68
2022/12/08 08:13:30;;;;;;;30.27;14.25;;;;;;;4.13;100.00;99627.19;5014511;28;20030;-68
2022/12/08 08:16:02;;;;;;;28.40;14.05;;;;;;;4.33;100.00;99634.81;5016785;28;20057;-68
2022/12/08 08:18:28;;;;;;;27.95;13.77;;;;;;;4.46;100.00;99626.72;5014411;28;20040;-68
2022/12/08 08:20:53;;;;;;;23.75;13.40;;;;;;;4.65;100.00;99633.44;5014461;28;20038;-68
2022/12/08 08:23:19;;;;;;;28.92;16.55;;;;;;;4.90;100.00;99626.03;5027350;28;20104;-68
2022/12/08 08:25:44;;;;;;;25.65;11.93;;;;;;;5.12;100.00;99625.63;5034212;28;20025;-68
2022/12/08 08:28:09;;;;;;;26.65;14.90;;;;;;;5.27;100.00;99635.91;5027414;28;20386;-68
2022/12/08 08:30:35;;;;;;;22.48;12.93;;;;;;;5.35;100.00;99626.09;5014316;28;20033;-68
2022/12/08 08:33:00;;;;;;;30.13;14.63;;;;;;;5.26;100.00;99625.41;5014224;28;20097;-68
2022/12/08 08:35:26;;;;;;;29.48;14.80;;;;;;;5.06;100.00;99588.84;5019080;28;20022;-68
2022/12/08 08:37:51;;;;;;;27.50;12.77;;;;;;;5.17;100.00;99618.53;5013806;28;20038;-68
2022/12/08 08:40:17;;;;;;;20.85;12.93;;;;;;;5.16;100.00;99611.53;5018397;28;20076;-69
2022/12/08 08:42:42;;;;;;;26.77;13.90;;;;;;;5.23;100.00;99615.81;5032681;28;20032;-68
2022/12/08 08:45:08;;;;;;;21.20;10.93;;;;;;;5.22;100.00;99614.03;5032162;28;20520;-68
2022/12/08 08:47:34;;;;;;;20.85;10.52;;;;;;;5.07;100.00;99611.66;5030355;28;20589;-68
2022/12/08 08:49:59;;;;;;;22.60;11.27;;;;;;;5.12;100.00;99612.47;5032501;28;20028;-69
2022/12/08 08:52:24;;;;;;;26.50;11.25;;;;;;;5.35;100.00;99612.91;5024151;28;20413;-69
2022/12/08 08:54:50;;;;;;;24.77;13.57;;;;;;;5.72;100.00;99609.59;5012915;28;20611;-72
2022/12/08 08:57:16;;;;;;;31.05;14.45;;;;;;;6.79;100.00;99597.56;5012580;28;20029;-67
2022/12/08 08:59:42;;;;;;;26.08;12.77;;;;;;;7.96;100.00;99589.09;5018065;28;20434;-69
2022/12/08 09:02:15;;;;;;;29.40;15.32;;;;;;;9.47;96.07;99597.53;5013763;28;20036;-69
2022/12/08 09:04:40;;;;;;;27.63;11.95;;;;;;;11.10;78.84;99593.91;5029493;28;20036;-69
2022/12/08 09:07:06;;;;;;;21.63;12.05;;;;;;;12.18;71.57;99583.78;5023103;28;20045;-69
2022/12/08 09:09:31;;;;;;;21.00;10.25;;;;;;;13.15;64.13;99580.00;5027843;28;20696;-69
2022/12/08 09:11:57;;;;;;;16.67;9.88;;;;;;;13.87;59.04;99580.72;5033124;28;20079;-69
2022/12/08 09:14:22;;;;;;;21.25;10.43;;;;;;;14.88;55.49;99575.97;5032958;28;20028;-69
2022/12/08 09:16:48;;;;;;;17.38;10.02;;;;;;;15.74;51.36;99577.09;5033101;28;20369;-70
2022/12/08 09:19:14;;;;;;;15.55;9.18;;;;;;;15.80;47.76;99575.84;5022788;28;20039;-69
2022/12/08 09:21:39;;;;;;;16.05;8.77;;;;;;;14.50;50.08;99579.94;5013557;28;20026;-69
2022/12/08 09:24:05;;;;;;;13.90;9.40;;;;;;;13.76;52.83;99583.94;5015321;28;20057;-68
2022/12/08 09:26:30;;;;;;;16.80;8.52;;;;;;;12.56;53.88;99585.56;5016693;28;20045;-68
2022/12/08 09:28:56;;;;;;;16.38;8.60;;;;;;;11.29;57.40;99587.75;5032808;28;20029;-67
2022/12/08 09:31:22;;;;;;;16.00;8.82;;;;;;;9.96;62.72;99583.34;5026634;28;20026;-68
2022/12/08 09:33:52;;;;;;;15.95;9.05;;;;;;;9.25;67.84;99597.41;5021375;28;20029;-67
2022/12/08 09:36:18;;;;;;;16.63;8.40;;;;;;;8.97;71.49;99593.06;5029750;28;20038;-67
2022/12/08 09:38:43;;;;;;;14.73;9.07;;;;;;;8.78;74.27;99598.06;5015185;28;20045;-67
2022/12/08 09:41:22;;;;;;;16.33;9.10;;;;;;;8.77;75.57;99587.53;5025054;28;20440;-67
2022/12/08 09:44:16;;;;;;;16.15;8.43;;;;;;;9.07;77.17;99594.47;5032230;28;20033;-67
2022/12/08 09:46:42;;;;;;;16.40;8.75;;;;;;;9.81;72.00;99586.56;5016017;28;20393;-67
2022/12/08 09:49:15;;;;;;;15.57;8.52;;;;;;;10.09;69.13;99580.22;5012656;28;20029;-67
2022/12/08 09:51:42;;;;;;;16.73;8.82;;;;;;;9.47;69.34;99568.31;5013983;28;20061;-67
2022/12/08 09:54:40;;;;;;;16.35;9.30;;;;;;;8.61;72.93;99578.31;5012028;28;20037;-68
2022/12/08 09:57:13;;;;;;;16.15;9.88;;;;;;;7.88;76.40;99585.81;4991056;28;20046;-68
2022/12/08 09:59:40;;;;;;;16.77;8.52;;;;;;;7.57;79.79;99578.78;5011995;28;20026;-67
2022/12/08 10:02:20;;;;;;;17.90;9.45;;;;;;;7.23;83.23;99580.59;5012204;28;20033;-67
2022/12/08 10:04:45;;;;;;;16.23;9.27;;;;;;;6.95;83.93;99571.63;5025239;28;20037;-67
2022/12/08 10:07:21;;;;;;;17.30;8.98;;;;;;;6.86;85.31;99566.56;5012327;28;20042;-67
2022/12/08 10:10:03;;;;;;;17.50;9.55;;;;;;;6.85;86.59;99556.91;5012107;28;20111;-67
2022/12/08 10:12:47;;;;;;;19.35;12.10;;;;;;;6.80;87.23;99551.72;5030384;28;20025;-66
2022/12/08 10:15:46;;;;;;;17.77;9.75;;;;;;;6.67;88.39;99543.22;5015997;28;20029;-67
2022/12/08 10:18:16;;;;;;;15.27;9.32;;;;;;;6.56;87.81;99549.66;5012359;28;20030;-66
2022/12/08 10:20:44;;;;;;;15.63;8.88;;;;;;;6.53;88.96;99542.69;5014364;28;20117;-66
2022/12/08 10:23:32;;;;;;;15.35;8.57;;;;;;;6.42;89.11;99544.75;5012225;28;20076;-66
2022/12/08 10:26:02;;;;;;;15.45;8.32;;;;;;;6.41;90.08;99542.09;5014439;28;20033;-66
2022/12/08 10:28:28;;;;;;;15.90;8.45;;;;;;;6.32;90.57;99537.06;5014666;28;20484;-66
2022/12/08 10:30:53;;;;;;;15.77;9.32;;;;;;;6.29;90.38;99535.34;5012179;28;20025;-66
2022/12/08 10:33:21;;;;;;;15.85;8.70;;;;;;;6.33;90.99;99533.50;5011773;28;20026;-66
2022/12/08 10:35:50;;;;;;;17.77;10.02;;;;;;;6.40;91.49;99529.81;5028143;28;20489;-66
2022/12/08 10:38:17;;;;;;;18.60;10.90;;;;;;;6.29;90.84;99537.13;5012110;28;20486;-67
2022/12/08 10:40:44;;;;;;;16.42;10.43;;;;;;;6.27;91.16;99529.25;5014213;28;20033;-67
2022/12/08 10:43:16;;;;;;;15.35;9.48;;;;;;;6.41;91.29;99515.69;5011816;28;20025;-67
2022/12/08 10:45:42;;;;;;;17.27;10.05;;;;;;;6.36;90.95;99521.09;5028139;28;20826;-67
2022/12/08 10:48:26;;;;;;;20.10;9.07;;;;;;;6.27;90.75;99508.13;5011913;28;20026;-66
2022/12/08 10:50:55;;;;;;;17.15;9.30;;;;;;;6.23;90.87;99516.13;5011512;28;20033;-66
2022/12/08 10:53:29;;;;;;;18.73;9.75;;;;;;;6.30;91.29;99518.59;5013736;28;20044;-67
2022/12/08 10:56:00;;;;;;;16.48;9.10;;;;;;;6.28;91.90;99512.47;5013782;28;20501;-66
2022/12/08 10:58:39;;;;;;;17.88;9.93;;;;;;;6.28;91.33;99508.97;5011751;28;20030;-66
2022/12/08 11:01:13;;;;;;;19.52;9.57;;;;;;;6.26;91.19;99503.72;5011140;28;20038;-66
2022/12/08 11:03:42;;;;;;;16.05;9.27;;;;;;;6.29;91.22;99494.88;5014693;28;20025;-66
2022/12/08 11:06:33;;;;;;;15.52;8.95;;;;;;;6.29;92.17;99503.63;5011535;28;20057;-66
2022/12/08 11:09:01;;;;;;;16.30;8.88;;;;;;;6.38;92.07;99498.16;5011586;28;20030;-66
2022/12/08 11:11:44;;;;;;;22.15;10.40;;;;;;;6.37;92.71;99483.22;5011422;28;20034;-65
2022/12/08 11:14:42;;;;;;;19.65;10.38;;;;;;;6.47;92.35;99487.34;5019824;28;20420;-66
2022/12/08 11:17:20;;;;;;;14.80;9.30;;;;;;;6.56;91.39;99488.91;5014282;28;20045;-66
2022/12/08 11:20:08;;;;;;;16.20;8.40;;;;;;;6.32;89.84;99482.47;5019374;28;20030;-66
2022/12/08 11:22:50;;;;;;;14.55;8.10;;;;;;;6.30;90.90;99483.41;5018412;28;20509;-66
2022/12/08 11:25:26;;;;;;;21.33;8.98;;;;;;;6.33;90.21;99476.25;5023369;28;20045;-66
2022/12/08 11:28:00;;;;;;;15.48;9.02;;;;;;;6.33;90.62;99475.38;5013798;28;20022;-66
2022/12/08 11:30:35;;;;;;;19.83;10.75;;;;;;;6.30;90.64;99471.06;5011169;28;20478;-66
2022/12/08 11:33:12;;;;;;;18.05;9.98;;;;;;;6.34;91.03;99474.50;5011590;28;20037;-66
2022/12/08 11:35:41;;;;;;;18.98;9.68;;;;;;;6.43;91.21;99461.94;5013309;28;20041;-66